Terminal Aerodrome Forecast
Issued by NWS

Home | Current Version | Previous Version | Text Only | Print | Product List | Glossary On
Versions: 1 2 3 4 5 6 7 8 9 10 11 12 13 14 15 16 17
000
FTUS43 KEAX 281120
TAFSTJ
TAF
KSTJ 281120Z 2812/2912 16010KT P6SM VCSH BKN100
      TEMPO 2812/2814 -RA
     FM281500 20016G23KT P6SM BKN100
     FM282100 19010KT P6SM VCTS BKN040CB
     FM290300 VRB04KT P6SM BKN040
     FM290800 VRB04KT 5SM BR BKN015=

USA.gov is the U.S. government's official web portal to all federal, state and local government web resources and services.